sensor_id;sensor_type;location;lat;lon;timestamp;P1;durP1;ratioP1;P2;durP2;ratioP2
66353;SDS011;53150;48.296;16.452;2022-09-01T00:00:26;6.13;;;4.15;;
66353;SDS011;53150;48.296;16.452;2022-09-01T00:02:54;6.32;;;4.20;;
66353;SDS011;53150;48.296;16.452;2022-09-01T00:05:20;6.07;;;4.10;;
66353;SDS011;53150;48.296;16.452;2022-09-01T00:07:47;5.95;;;4.45;;
66353;SDS011;53150;48.296;16.452;2022-09-01T00:10:14;5.90;;;4.13;;
66353;SDS011;53150;48.296;16.452;2022-09-01T00:12:40;5.80;;;4.03;;
66353;SDS011;53150;48.296;16.452;2022-09-01T00:15:10;5.40;;;3.85;;
66353;SDS011;53150;48.296;16.452;2022-09-01T00:17:37;5.50;;;3.92;;
66353;SDS011;53150;48.296;16.452;2022-09-01T00:20:03;5.28;;;4.05;;
66353;SDS011;53150;48.296;16.452;2022-09-01T00:22:29;5.45;;;4.10;;
66353;SDS011;53150;48.296;16.452;2022-09-01T00:24:57;6.25;;;4.38;;
66353;SDS011;53150;48.296;16.452;2022-09-01T00:27:25;6.82;;;5.10;;
66353;SDS011;53150;48.296;16.452;2022-09-01T00:29:51;8.13;;;4.50;;
66353;SDS011;53150;48.296;16.452;2022-09-01T00:32:17;5.68;;;4.00;;
66353;SDS011;53150;48.296;16.452;2022-09-01T00:34:43;6.75;;;4.28;;
66353;SDS011;53150;48.296;16.452;2022-09-01T00:37:09;6.03;;;3.55;;
66353;SDS011;53150;48.296;16.452;2022-09-01T00:39:36;6.93;;;4.20;;
66353;SDS011;53150;48.296;16.452;2022-09-01T00:42:02;6.18;;;4.13;;
66353;SDS011;53150;48.296;16.452;2022-09-01T00:44:28;6.85;;;4.03;;
66353;SDS011;53150;48.296;16.452;2022-09-01T00:46:55;5.93;;;4.22;;
66353;SDS011;53150;48.296;16.452;2022-09-01T00:49:35;6.32;;;3.97;;
66353;SDS011;53150;48.296;16.452;2022-09-01T00:52:07;6.43;;;4.07;;
66353;SDS011;53150;48.296;16.452;2022-09-01T00:54:35;7.78;;;4.60;;
66353;SDS011;53150;48.296;16.452;2022-09-01T00:57:03;5.28;;;3.65;;
66353;SDS011;53150;48.296;16.452;2022-09-01T00:59:30;6.15;;;4.00;;
66353;SDS011;53150;48.296;16.452;2022-09-01T01:01:56;5.00;;;3.58;;
66353;SDS011;53150;48.296;16.452;2022-09-01T01:04:23;6.05;;;4.03;;
66353;SDS011;53150;48.296;16.452;2022-09-01T01:06:51;5.45;;;3.45;;
66353;SDS011;53150;48.296;16.452;2022-09-01T01:09:25;5.93;;;3.70;;
66353;SDS011;53150;48.296;16.452;2022-09-01T01:11:52;5.90;;;4.03;;
66353;SDS011;53150;48.296;16.452;2022-09-01T01:14:23;5.65;;;4.10;;
66353;SDS011;53150;48.296;16.452;2022-09-01T01:16:51;5.80;;;3.80;;
66353;SDS011;53150;48.296;16.452;2022-09-01T01:19:24;6.32;;;4.07;;
66353;SDS011;53150;48.296;16.452;2022-09-01T01:22:14;5.75;;;3.88;;
66353;SDS011;53150;48.296;16.452;2022-09-01T01:25:01;6.65;;;4.22;;
66353;SDS011;53150;48.296;16.452;2022-09-01T01:27:31;6.43;;;3.90;;
66353;SDS011;53150;48.296;16.452;2022-09-01T01:29:59;5.65;;;3.90;;
66353;SDS011;53150;48.296;16.452;2022-09-01T01:32:25;6.63;;;3.85;;
66353;SDS011;53150;48.296;16.452;2022-09-01T01:34:53;5.85;;;3.65;;
66353;SDS011;53150;48.296;16.452;2022-09-01T01:37:20;6.70;;;3.55;;
66353;SDS011;53150;48.296;16.452;2022-09-01T01:39:49;5.85;;;3.67;;
66353;SDS011;53150;48.296;16.452;2022-09-01T01:42:15;6.95;;;4.25;;
66353;SDS011;53150;48.296;16.452;2022-09-01T01:44:42;5.63;;;3.65;;
66353;SDS011;53150;48.296;16.452;2022-09-01T01:47:09;6.55;;;3.80;;
66353;SDS011;53150;48.296;16.452;2022-09-01T01:49:37;6.75;;;4.00;;
66353;SDS011;53150;48.296;16.452;2022-09-01T01:52:08;5.90;;;3.58;;
66353;SDS011;53150;48.296;16.452;2022-09-01T01:54:35;6.75;;;3.88;;
66353;SDS011;53150;48.296;16.452;2022-09-01T01:57:02;5.63;;;3.70;;
66353;SDS011;53150;48.296;16.452;2022-09-01T01:59:28;5.78;;;3.50;;
66353;SDS011;53150;48.296;16.452;2022-09-01T02:01:54;5.82;;;3.30;;
66353;SDS011;53150;48.296;16.452;2022-09-01T02:04:22;5.18;;;3.28;;
66353;SDS011;53150;48.296;16.452;2022-09-01T02:06:48;6.90;;;3.83;;
66353;SDS011;53150;48.296;16.452;2022-09-01T02:09:16;5.75;;;4.70;;
66353;SDS011;53150;48.296;16.452;2022-09-01T02:11:42;6.30;;;3.70;;
66353;SDS011;53150;48.296;16.452;2022-09-01T02:14:09;5.55;;;3.53;;
66353;SDS011;53150;48.296;16.452;2022-09-01T02:16:37;7.95;;;3.53;;
66353;SDS011;53150;48.296;16.452;2022-09-01T02:19:04;6.40;;;3.58;;
66353;SDS011;53150;48.296;16.452;2022-09-01T02:21:31;7.13;;;3.55;;
66353;SDS011;53150;48.296;16.452;2022-09-01T02:23:59;5.65;;;3.17;;
66353;SDS011;53150;48.296;16.452;2022-09-01T02:26:26;4.93;;;2.90;;
66353;SDS011;53150;48.296;16.452;2022-09-01T02:28:55;6.55;;;3.80;;
66353;SDS011;53150;48.296;16.452;2022-09-01T02:31:22;5.72;;;3.25;;
66353;SDS011;53150;48.296;16.452;2022-09-01T02:33:48;5.22;;;3.22;;
66353;SDS011;53150;48.296;16.452;2022-09-01T02:36:15;5.95;;;3.10;;
66353;SDS011;53150;48.296;16.452;2022-09-01T02:38:43;4.93;;;3.00;;
66353;SDS011;53150;48.296;16.452;2022-09-01T02:41:10;5.45;;;3.10;;
66353;SDS011;53150;48.296;16.452;2022-09-01T02:43:38;5.07;;;3.17;;
66353;SDS011;53150;48.296;16.452;2022-09-01T02:46:04;5.15;;;3.20;;
66353;SDS011;53150;48.296;16.452;2022-09-01T02:48:37;5.93;;;3.42;;
66353;SDS011;53150;48.296;16.452;2022-09-01T02:51:04;7.05;;;3.65;;
66353;SDS011;53150;48.296;16.452;2022-09-01T02:53:31;4.93;;;3.00;;
66353;SDS011;53150;48.296;16.452;2022-09-01T02:56:02;6.18;;;3.28;;
66353;SDS011;53150;48.296;16.452;2022-09-01T02:58:33;5.68;;;3.30;;
66353;SDS011;53150;48.296;16.452;2022-09-01T03:01:20;6.13;;;3.28;;
66353;SDS011;53150;48.296;16.452;2022-09-01T03:03:49;5.72;;;3.38;;
66353;SDS011;53150;48.296;16.452;2022-09-01T03:06:15;5.47;;;3.08;;
66353;SDS011;53150;48.296;16.452;2022-09-01T03:08:48;5.90;;;3.30;;
66353;SDS011;53150;48.296;16.452;2022-09-01T03:11:14;5.65;;;3.40;;
66353;SDS011;53150;48.296;16.452;2022-09-01T03:13:40;5.25;;;3.40;;
66353;SDS011;53150;48.296;16.452;2022-09-01T03:16:07;6.85;;;3.30;;
66353;SDS011;53150;48.296;16.452;2022-09-01T03:18:33;5.45;;;3.50;;
66353;SDS011;53150;48.296;16.452;2022-09-01T03:21:00;7.22;;;3.80;;
66353;SDS011;53150;48.296;16.452;2022-09-01T03:23:27;6.13;;;3.40;;
66353;SDS011;53150;48.296;16.452;2022-09-01T03:25:53;6.05;;;4.00;;
66353;SDS011;53150;48.296;16.452;2022-09-01T03:28:19;5.50;;;3.60;;
66353;SDS011;53150;48.296;16.452;2022-09-01T03:30:48;5.78;;;3.35;;
66353;SDS011;53150;48.296;16.452;2022-09-01T03:33:14;6.32;;;3.40;;
66353;SDS011;53150;48.296;16.452;2022-09-01T03:35:41;5.70;;;3.80;;
66353;SDS011;53150;48.296;16.452;2022-09-01T03:38:07;5.13;;;3.63;;
66353;SDS011;53150;48.296;16.452;2022-09-01T03:40:34;6.30;;;3.70;;
66353;SDS011;53150;48.296;16.452;2022-09-01T03:43:01;6.07;;;3.55;;
66353;SDS011;53150;48.296;16.452;2022-09-01T03:45:28;6.85;;;3.88;;
66353;SDS011;53150;48.296;16.452;2022-09-01T03:47:54;5.63;;;3.50;;
66353;SDS011;53150;48.296;16.452;2022-09-01T03:50:22;5.80;;;3.50;;
66353;SDS011;53150;48.296;16.452;2022-09-01T03:52:48;7.28;;;3.47;;
66353;SDS011;53150;48.296;16.452;2022-09-01T03:55:16;5.18;;;3.30;;
66353;SDS011;53150;48.296;16.452;2022-09-01T03:57:50;5.68;;;3.67;;
66353;SDS011;53150;48.296;16.452;2022-09-01T04:00:17;5.63;;;3.05;;
66353;SDS011;53150;48.296;16.452;2022-09-01T04:02:50;6.38;;;3.45;;
66353;SDS011;53150;48.296;16.452;2022-09-01T04:05:18;6.38;;;3.30;;
66353;SDS011;53150;48.296;16.452;2022-09-01T04:07:59;6.10;;;3.47;;
66353;SDS011;53150;48.296;16.452;2022-09-01T04:10:34;6.75;;;3.28;;
66353;SDS011;53150;48.296;16.452;2022-09-01T04:13:03;6.82;;;3.58;;
66353;SDS011;53150;48.296;16.452;2022-09-01T04:15:29;4.80;;;2.95;;
66353;SDS011;53150;48.296;16.452;2022-09-01T04:17:58;5.50;;;3.38;;
66353;SDS011;53150;48.296;16.452;2022-09-01T04:20:37;6.65;;;3.17;;
66353;SDS011;53150;48.296;16.452;2022-09-01T04:23:21;7.65;;;3.53;;
66353;SDS011;53150;48.296;16.452;2022-09-01T04:25:51;5.18;;;3.17;;
66353;SDS011;53150;48.296;16.452;2022-09-01T04:28:18;5.13;;;3.10;;
66353;SDS011;53150;48.296;16.452;2022-09-01T04:30:52;6.68;;;3.70;;
66353;SDS011;53150;48.296;16.452;2022-09-01T04:33:20;5.75;;;3.40;;
66353;SDS011;53150;48.296;16.452;2022-09-01T04:35:47;8.00;;;3.20;;
66353;SDS011;53150;48.296;16.452;2022-09-01T04:38:14;7.25;;;2.85;;
66353;SDS011;53150;48.296;16.452;2022-09-01T04:40:42;8.30;;;3.63;;
66353;SDS011;53150;48.296;16.452;2022-09-01T04:43:08;9.38;;;3.83;;
66353;SDS011;53150;48.296;16.452;2022-09-01T04:45:35;7.38;;;3.38;;
66353;SDS011;53150;48.296;16.452;2022-09-01T04:48:02;6.50;;;3.17;;
66353;SDS011;53150;48.296;16.452;2022-09-01T04:50:38;5.55;;;3.40;;
66353;SDS011;53150;48.296;16.452;2022-09-01T04:53:25;6.82;;;3.83;;
66353;SDS011;53150;48.296;16.452;2022-09-01T04:55:53;5.68;;;2.85;;
66353;SDS011;53150;48.296;16.452;2022-09-01T04:58:20;7.43;;;2.75;;
66353;SDS011;53150;48.296;16.452;2022-09-01T05:00:47;5.00;;;2.92;;
66353;SDS011;53150;48.296;16.452;2022-09-01T05:03:15;5.82;;;3.25;;
66353;SDS011;53150;48.296;16.452;2022-09-01T05:05:45;5.32;;;2.67;;
66353;SDS011;53150;48.296;16.452;2022-09-01T05:08:13;6.28;;;2.67;;
66353;SDS011;53150;48.296;16.452;2022-09-01T05:10:45;5.03;;;2.80;;
66353;SDS011;53150;48.296;16.452;2022-09-01T05:13:34;6.70;;;3.03;;
66353;SDS011;53150;48.296;16.452;2022-09-01T05:16:07;5.07;;;2.83;;
66353;SDS011;53150;48.296;16.452;2022-09-01T05:18:39;6.93;;;2.95;;
66353;SDS011;53150;48.296;16.452;2022-09-01T05:21:09;6.20;;;3.10;;
66353;SDS011;53150;48.296;16.452;2022-09-01T05:23:39;6.50;;;2.95;;
66353;SDS011;53150;48.296;16.452;2022-09-01T05:26:17;6.55;;;2.70;;
66353;SDS011;53150;48.296;16.452;2022-09-01T05:28:48;6.07;;;2.65;;
66353;SDS011;53150;48.296;16.452;2022-09-01T05:31:18;4.43;;;2.85;;
66353;SDS011;53150;48.296;16.452;2022-09-01T05:33:51;6.10;;;2.35;;
66353;SDS011;53150;48.296;16.452;2022-09-01T05:36:18;5.28;;;2.50;;
66353;SDS011;53150;48.296;16.452;2022-09-01T05:38:46;5.97;;;2.25;;
66353;SDS011;53150;48.296;16.452;2022-09-01T05:41:13;4.63;;;2.35;;
66353;SDS011;53150;48.296;16.452;2022-09-01T05:43:40;5.55;;;2.38;;
66353;SDS011;53150;48.296;16.452;2022-09-01T05:46:14;4.50;;;2.22;;
66353;SDS011;53150;48.296;16.452;2022-09-01T05:48:44;4.07;;;2.10;;
66353;SDS011;53150;48.296;16.452;2022-09-01T05:51:13;4.47;;;2.10;;
66353;SDS011;53150;48.296;16.452;2022-09-01T05:53:44;5.03;;;2.10;;
66353;SDS011;53150;48.296;16.452;2022-09-01T05:56:11;4.78;;;2.83;;
66353;SDS011;53150;48.296;16.452;2022-09-01T05:58:39;6.05;;;2.38;;
66353;SDS011;53150;48.296;16.452;2022-09-01T06:01:09;4.13;;;2.30;;
66353;SDS011;53150;48.296;16.452;2022-09-01T06:03:40;5.07;;;2.30;;
66353;SDS011;53150;48.296;16.452;2022-09-01T06:06:08;4.70;;;2.20;;
66353;SDS011;53150;48.296;16.452;2022-09-01T06:08:36;4.90;;;2.28;;
66353;SDS011;53150;48.296;16.452;2022-09-01T06:11:02;7.40;;;2.60;;
66353;SDS011;53150;48.296;16.452;2022-09-01T06:13:36;4.57;;;2.10;;
66353;SDS011;53150;48.296;16.452;2022-09-01T06:16:03;4.72;;;2.20;;
66353;SDS011;53150;48.296;16.452;2022-09-01T06:18:29;4.50;;;2.22;;
66353;SDS011;53150;48.296;16.452;2022-09-01T06:20:58;4.72;;;2.10;;
66353;SDS011;53150;48.296;16.452;2022-09-01T06:23:24;5.00;;;2.20;;
66353;SDS011;53150;48.296;16.452;2022-09-01T06:25:50;4.47;;;1.92;;
66353;SDS011;53150;48.296;16.452;2022-09-01T06:28:16;4.45;;;2.63;;
66353;SDS011;53150;48.296;16.452;2022-09-01T06:30:45;4.93;;;2.28;;
66353;SDS011;53150;48.296;16.452;2022-09-01T06:33:13;5.10;;;2.00;;
66353;SDS011;53150;48.296;16.452;2022-09-01T06:35:40;5.50;;;2.55;;
66353;SDS011;53150;48.296;16.452;2022-09-01T06:38:07;4.95;;;2.20;;
66353;SDS011;53150;48.296;16.452;2022-09-01T06:40:34;5.35;;;2.20;;
66353;SDS011;53150;48.296;16.452;2022-09-01T06:43:03;4.80;;;2.28;;
66353;SDS011;53150;48.296;16.452;2022-09-01T06:45:32;4.22;;;2.00;;
66353;SDS011;53150;48.296;16.452;2022-09-01T06:47:58;4.85;;;2.22;;
66353;SDS011;53150;48.296;16.452;2022-09-01T06:50:25;5.10;;;2.00;;
66353;SDS011;53150;48.296;16.452;2022-09-01T06:52:52;4.75;;;2.10;;
66353;SDS011;53150;48.296;16.452;2022-09-01T06:55:25;4.68;;;1.88;;
66353;SDS011;53150;48.296;16.452;2022-09-01T06:57:55;4.28;;;2.20;;
66353;SDS011;53150;48.296;16.452;2022-09-01T07:00:22;4.72;;;1.98;;
66353;SDS011;53150;48.296;16.452;2022-09-01T07:02:52;5.28;;;1.90;;
66353;SDS011;53150;48.296;16.452;2022-09-01T07:05:19;5.15;;;2.10;;
66353;SDS011;53150;48.296;16.452;2022-09-01T07:07:46;4.13;;;1.80;;
66353;SDS011;53150;48.296;16.452;2022-09-01T07:10:14;4.55;;;2.10;;
66353;SDS011;53150;48.296;16.452;2022-09-01T07:12:44;4.03;;;1.60;;
66353;SDS011;53150;48.296;16.452;2022-09-01T07:15:12;4.75;;;2.17;;
66353;SDS011;53150;48.296;16.452;2022-09-01T07:17:46;3.58;;;1.70;;
66353;SDS011;53150;48.296;16.452;2022-09-01T07:20:14;4.05;;;1.83;;
66353;SDS011;53150;48.296;16.452;2022-09-01T07:22:40;4.55;;;1.50;;
66353;SDS011;53150;48.296;16.452;2022-09-01T07:25:06;5.63;;;2.08;;
66353;SDS011;53150;48.296;16.452;2022-09-01T07:27:36;4.68;;;1.90;;
66353;SDS011;53150;48.296;16.452;2022-09-01T07:30:03;4.18;;;2.25;;
66353;SDS011;53150;48.296;16.452;2022-09-01T07:32:33;3.53;;;1.80;;
66353;SDS011;53150;48.296;16.452;2022-09-01T07:35:00;4.50;;;1.92;;
66353;SDS011;53150;48.296;16.452;2022-09-01T07:37:26;4.03;;;2.00;;
66353;SDS011;53150;48.296;16.452;2022-09-01T07:39:52;4.35;;;1.90;;
66353;SDS011;53150;48.296;16.452;2022-09-01T07:42:20;3.70;;;1.77;;
66353;SDS011;53150;48.296;16.452;2022-09-01T07:44:46;4.13;;;1.73;;
66353;SDS011;53150;48.296;16.452;2022-09-01T07:47:12;4.05;;;1.60;;
66353;SDS011;53150;48.296;16.452;2022-09-01T07:49:39;4.80;;;1.85;;
66353;SDS011;53150;48.296;16.452;2022-09-01T07:52:06;4.82;;;1.60;;
66353;SDS011;53150;48.296;16.452;2022-09-01T08:00:13;3.88;;;1.60;;
66353;SDS011;53150;48.296;16.452;2022-09-01T08:02:40;3.92;;;1.65;;
66353;SDS011;53150;48.296;16.452;2022-09-01T08:05:08;4.70;;;1.80;;
66353;SDS011;53150;48.296;16.452;2022-09-01T08:07:35;4.22;;;1.67;;
66353;SDS011;53150;48.296;16.452;2022-09-01T08:10:02;3.58;;;1.42;;
66353;SDS011;53150;48.296;16.452;2022-09-01T08:12:28;3.28;;;1.50;;
66353;SDS011;53150;48.296;16.452;2022-09-01T08:14:54;3.20;;;1.35;;
66353;SDS011;53150;48.296;16.452;2022-09-01T08:17:20;3.47;;;1.40;;
66353;SDS011;53150;48.296;16.452;2022-09-01T08:19:46;3.65;;;1.40;;
66353;SDS011;53150;48.296;16.452;2022-09-01T08:22:13;4.20;;;1.30;;
66353;SDS011;53150;48.296;16.452;2022-09-01T08:24:39;4.55;;;1.48;;
66353;SDS011;53150;48.296;16.452;2022-09-01T08:27:05;2.60;;;1.15;;
66353;SDS011;53150;48.296;16.452;2022-09-01T08:29:32;4.03;;;1.20;;
66353;SDS011;53150;48.296;16.452;2022-09-01T08:31:58;3.70;;;1.45;;
66353;SDS011;53150;48.296;16.452;2022-09-01T08:34:24;3.35;;;1.55;;
66353;SDS011;53150;48.296;16.452;2022-09-01T08:36:51;3.50;;;1.48;;
66353;SDS011;53150;48.296;16.452;2022-09-01T08:39:17;3.20;;;1.30;;
66353;SDS011;53150;48.296;16.452;2022-09-01T08:41:45;3.95;;;1.20;;
66353;SDS011;53150;48.296;16.452;2022-09-01T08:44:36;2.95;;;1.40;;
66353;SDS011;53150;48.296;16.452;2022-09-01T08:47:08;3.85;;;1.30;;
66353;SDS011;53150;48.296;16.452;2022-09-01T08:49:34;3.10;;;1.00;;
66353;SDS011;53150;48.296;16.452;2022-09-01T08:56:58;3.50;;;1.35;;
66353;SDS011;53150;48.296;16.452;2022-09-01T08:59:25;2.97;;;1.30;;
66353;SDS011;53150;48.296;16.452;2022-09-01T09:02:06;4.32;;;1.20;;
66353;SDS011;53150;48.296;16.452;2022-09-01T09:05:42;4.63;;;1.67;;
66353;SDS011;53150;48.296;16.452;2022-09-01T09:15:07;3.45;;;1.45;;
66353;SDS011;53150;48.296;16.452;2022-09-01T09:17:36;4.22;;;1.50;;
66353;SDS011;53150;48.296;16.452;2022-09-01T09:20:03;4.80;;;1.60;;
66353;SDS011;53150;48.296;16.452;2022-09-01T09:22:30;3.78;;;1.60;;
66353;SDS011;53150;48.296;16.452;2022-09-01T09:25:07;3.95;;;1.40;;
66353;SDS011;53150;48.296;16.452;2022-09-01T09:27:35;4.00;;;1.52;;
66353;SDS011;53150;48.296;16.452;2022-09-01T09:30:04;3.75;;;1.50;;
66353;SDS011;53150;48.296;16.452;2022-09-01T09:35:26;3.75;;;1.38;;
66353;SDS011;53150;48.296;16.452;2022-09-01T09:37:54;3.50;;;1.48;;
66353;SDS011;53150;48.296;16.452;2022-09-01T09:40:22;3.47;;;1.33;;
66353;SDS011;53150;48.296;16.452;2022-09-01T09:47:48;3.90;;;1.40;;
66353;SDS011;53150;48.296;16.452;2022-09-01T09:52:50;4.05;;;1.27;;
66353;SDS011;53150;48.296;16.452;2022-09-01T09:55:24;2.97;;;1.17;;
66353;SDS011;53150;48.296;16.452;2022-09-01T09:57:52;3.25;;;1.30;;
66353;SDS011;53150;48.296;16.452;2022-09-01T10:00:21;4.85;;;1.70;;
66353;SDS011;53150;48.296;16.452;2022-09-01T10:03:01;4.50;;;1.50;;
66353;SDS011;53150;48.296;16.452;2022-09-01T10:07:54;3.65;;;1.30;;
66353;SDS011;53150;48.296;16.452;2022-09-01T10:10:40;5.05;;;1.40;;
66353;SDS011;53150;48.296;16.452;2022-09-01T10:13:07;3.15;;;1.20;;
66353;SDS011;53150;48.296;16.452;2022-09-01T10:15:34;4.40;;;1.40;;
66353;SDS011;53150;48.296;16.452;2022-09-01T10:18:06;3.70;;;1.25;;
66353;SDS011;53150;48.296;16.452;2022-09-01T10:20:35;4.07;;;1.40;;
66353;SDS011;53150;48.296;16.452;2022-09-01T10:23:03;3.45;;;1.23;;
66353;SDS011;53150;48.296;16.452;2022-09-01T10:25:30;3.70;;;1.63;;
66353;SDS011;53150;48.296;16.452;2022-09-01T10:27:58;3.28;;;1.58;;
66353;SDS011;53150;48.296;16.452;2022-09-01T10:30:26;3.67;;;1.55;;
66353;SDS011;53150;48.296;16.452;2022-09-01T10:32:54;3.55;;;1.40;;
66353;SDS011;53150;48.296;16.452;2022-09-01T10:37:50;3.30;;;1.40;;
66353;SDS011;53150;48.296;16.452;2022-09-01T10:40:36;4.43;;;1.20;;
66353;SDS011;53150;48.296;16.452;2022-09-01T10:45:45;3.55;;;1.80;;
66353;SDS011;53150;48.296;16.452;2022-09-01T10:50:44;3.55;;;1.50;;
66353;SDS011;53150;48.296;16.452;2022-09-01T10:53:34;2.85;;;1.30;;
66353;SDS011;53150;48.296;16.452;2022-09-01T10:56:01;2.97;;;1.30;;
66353;SDS011;53150;48.296;16.452;2022-09-01T11:01:07;3.15;;;1.30;;
66353;SDS011;53150;48.296;16.452;2022-09-01T11:03:37;3.63;;;1.40;;
66353;SDS011;53150;48.296;16.452;2022-09-01T11:06:06;4.78;;;1.50;;
66353;SDS011;53150;48.296;16.452;2022-09-01T11:11:01;3.22;;;1.38;;
66353;SDS011;53150;48.296;16.452;2022-09-01T11:13:45;4.32;;;1.60;;
66353;SDS011;53150;48.296;16.452;2022-09-01T11:16:30;3.53;;;1.63;;
66353;SDS011;53150;48.296;16.452;2022-09-01T11:21:41;3.38;;;1.35;;
66353;SDS011;53150;48.296;16.452;2022-09-01T11:26:52;4.38;;;1.55;;
66353;SDS011;53150;48.296;16.452;2022-09-01T11:32:03;3.92;;;1.50;;
66353;SDS011;53150;48.296;16.452;2022-09-01T11:34:30;4.30;;;1.40;;
66353;SDS011;53150;48.296;16.452;2022-09-01T11:36:57;2.97;;;1.30;;
66353;SDS011;53150;48.296;16.452;2022-09-01T11:39:32;3.58;;;1.30;;
66353;SDS011;53150;48.296;16.452;2022-09-01T11:46:59;2.85;;;1.10;;
66353;SDS011;53150;48.296;16.452;2022-09-01T11:49:31;3.25;;;1.38;;
66353;SDS011;53150;48.296;16.452;2022-09-01T11:51:58;2.85;;;1.38;;
66353;SDS011;53150;48.296;16.452;2022-09-01T11:54:26;3.05;;;1.25;;
66353;SDS011;53150;48.296;16.452;2022-09-01T11:56:53;4.05;;;1.42;;
66353;SDS011;53150;48.296;16.452;2022-09-01T11:59:29;3.50;;;1.30;;
66353;SDS011;53150;48.296;16.452;2022-09-01T12:01:56;3.15;;;1.10;;
66353;SDS011;53150;48.296;16.452;2022-09-01T12:04:24;2.90;;;1.10;;
66353;SDS011;53150;48.296;16.452;2022-09-01T12:06:56;3.33;;;1.30;;
66353;SDS011;53150;48.296;16.452;2022-09-01T12:09:30;3.70;;;1.33;;
66353;SDS011;53150;48.296;16.452;2022-09-01T12:11:56;4.25;;;1.35;;
66353;SDS011;53150;48.296;16.452;2022-09-01T12:14:23;3.28;;;1.35;;
66353;SDS011;53150;48.296;16.452;2022-09-01T12:16:57;3.53;;;1.30;;
66353;SDS011;53150;48.296;16.452;2022-09-01T12:19:24;2.40;;;1.08;;
66353;SDS011;53150;48.296;16.452;2022-09-01T12:21:58;3.00;;;1.15;;
66353;SDS011;53150;48.296;16.452;2022-09-01T12:24:26;3.80;;;1.20;;
66353;SDS011;53150;48.296;16.452;2022-09-01T12:26:52;2.60;;;1.10;;
66353;SDS011;53150;48.296;16.452;2022-09-01T12:29:21;4.28;;;1.40;;
66353;SDS011;53150;48.296;16.452;2022-09-01T12:31:48;3.00;;;1.30;;
66353;SDS011;53150;48.296;16.452;2022-09-01T12:37:06;3.88;;;1.40;;
66353;SDS011;53150;48.296;16.452;2022-09-01T12:39:43;3.70;;;1.25;;
66353;SDS011;53150;48.296;16.452;2022-09-01T12:42:43;3.40;;;1.02;;
66353;SDS011;53150;48.296;16.452;2022-09-01T12:45:03;3.72;;;1.30;;
66353;SDS011;53150;48.296;16.452;2022-09-01T12:52:34;3.35;;;1.30;;
66353;SDS011;53150;48.296;16.452;2022-09-01T12:57:28;3.45;;;1.20;;
66353;SDS011;53150;48.296;16.452;2022-09-01T13:00:56;3.95;;;1.48;;
66353;SDS011;53150;48.296;16.452;2022-09-01T13:05:42;3.30;;;1.40;;
66353;SDS011;53150;48.296;16.452;2022-09-01T13:08:12;3.25;;;1.40;;
66353;SDS011;53150;48.296;16.452;2022-09-01T13:10:40;3.10;;;1.40;;
66353;SDS011;53150;48.296;16.452;2022-09-01T13:13:08;2.90;;;1.33;;
66353;SDS011;53150;48.296;16.452;2022-09-01T13:15:35;3.58;;;1.17;;
66353;SDS011;53150;48.296;16.452;2022-09-01T13:18:02;3.83;;;1.30;;
66353;SDS011;53150;48.296;16.452;2022-09-01T13:20:28;2.65;;;1.20;;
66353;SDS011;53150;48.296;16.452;2022-09-01T13:22:54;2.70;;;1.20;;
66353;SDS011;53150;48.296;16.452;2022-09-01T13:25:21;2.65;;;1.17;;
66353;SDS011;53150;48.296;16.452;2022-09-01T13:27:47;2.22;;;1.00;;
66353;SDS011;53150;48.296;16.452;2022-09-01T13:30:32;4.30;;;1.40;;
66353;SDS011;53150;48.296;16.452;2022-09-01T13:32:58;3.67;;;1.50;;
66353;SDS011;53150;48.296;16.452;2022-09-01T13:35:24;4.65;;;1.48;;
66353;SDS011;53150;48.296;16.452;2022-09-01T13:37:50;2.67;;;1.20;;
66353;SDS011;53150;48.296;16.452;2022-09-01T13:40:17;2.65;;;1.10;;
66353;SDS011;53150;48.296;16.452;2022-09-01T13:42:47;3.15;;;1.00;;
66353;SDS011;53150;48.296;16.452;2022-09-01T13:45:14;3.30;;;1.13;;
66353;SDS011;53150;48.296;16.452;2022-09-01T13:47:42;3.25;;;1.27;;
66353;SDS011;53150;48.296;16.452;2022-09-01T13:50:09;4.45;;;1.58;;
66353;SDS011;53150;48.296;16.452;2022-09-01T13:52:41;3.38;;;1.40;;
66353;SDS011;53150;48.296;16.452;2022-09-01T13:55:11;3.78;;;1.35;;
66353;SDS011;53150;48.296;16.452;2022-09-01T13:57:37;4.80;;;1.40;;
66353;SDS011;53150;48.296;16.452;2022-09-01T14:00:05;4.90;;;1.30;;
66353;SDS011;53150;48.296;16.452;2022-09-01T14:02:34;5.95;;;1.30;;
66353;SDS011;53150;48.296;16.452;2022-09-01T14:05:01;2.83;;;1.00;;
66353;SDS011;53150;48.296;16.452;2022-09-01T14:07:27;2.75;;;1.10;;
66353;SDS011;53150;48.296;16.452;2022-09-01T14:09:56;3.10;;;1.20;;
66353;SDS011;53150;48.296;16.452;2022-09-01T14:12:22;3.22;;;1.20;;
66353;SDS011;53150;48.296;16.452;2022-09-01T14:14:48;2.75;;;0.95;;
66353;SDS011;53150;48.296;16.452;2022-09-01T14:17:14;2.88;;;1.02;;
66353;SDS011;53150;48.296;16.452;2022-09-01T14:19:41;2.80;;;0.98;;
66353;SDS011;53150;48.296;16.452;2022-09-01T14:22:07;3.58;;;1.10;;
66353;SDS011;53150;48.296;16.452;2022-09-01T14:24:33;5.65;;;1.88;;
66353;SDS011;53150;48.296;16.452;2022-09-01T14:27:00;2.63;;;1.10;;
66353;SDS011;53150;48.296;16.452;2022-09-01T14:29:26;3.53;;;1.00;;
66353;SDS011;53150;48.296;16.452;2022-09-01T14:31:53;3.05;;;1.20;;
66353;SDS011;53150;48.296;16.452;2022-09-01T14:34:21;2.33;;;1.20;;
66353;SDS011;53150;48.296;16.452;2022-09-01T14:36:48;2.55;;;1.00;;
66353;SDS011;53150;48.296;16.452;2022-09-01T14:39:16;3.00;;;1.00;;
66353;SDS011;53150;48.296;16.452;2022-09-01T14:41:42;3.85;;;1.00;;
66353;SDS011;53150;48.296;16.452;2022-09-01T14:44:08;3.42;;;0.80;;
66353;SDS011;53150;48.296;16.452;2022-09-01T14:46:34;3.00;;;1.02;;
66353;SDS011;53150;48.296;16.452;2022-09-01T14:49:01;2.20;;;0.80;;
66353;SDS011;53150;48.296;16.452;2022-09-01T14:51:28;3.03;;;1.10;;
66353;SDS011;53150;48.296;16.452;2022-09-01T14:53:54;3.03;;;1.25;;
66353;SDS011;53150;48.296;16.452;2022-09-01T14:56:21;2.30;;;0.90;;
66353;SDS011;53150;48.296;16.452;2022-09-01T14:58:48;2.15;;;0.90;;
66353;SDS011;53150;48.296;16.452;2022-09-01T15:01:15;3.28;;;1.10;;
66353;SDS011;53150;48.296;16.452;2022-09-01T15:03:42;2.45;;;0.90;;
66353;SDS011;53150;48.296;16.452;2022-09-01T15:06:11;2.72;;;1.02;;
66353;SDS011;53150;48.296;16.452;2022-09-01T15:08:38;4.25;;;1.10;;
66353;SDS011;53150;48.296;16.452;2022-09-01T15:11:08;3.03;;;0.90;;
66353;SDS011;53150;48.296;16.452;2022-09-01T15:13:35;2.92;;;0.95;;
66353;SDS011;53150;48.296;16.452;2022-09-01T15:16:01;3.60;;;0.80;;
66353;SDS011;53150;48.296;16.452;2022-09-01T15:18:28;2.45;;;1.13;;
66353;SDS011;53150;48.296;16.452;2022-09-01T15:20:54;2.72;;;1.00;;
66353;SDS011;53150;48.296;16.452;2022-09-01T15:23:21;2.50;;;1.00;;
66353;SDS011;53150;48.296;16.452;2022-09-01T15:25:49;2.80;;;0.98;;
66353;SDS011;53150;48.296;16.452;2022-09-01T15:28:16;2.05;;;0.90;;
66353;SDS011;53150;48.296;16.452;2022-09-01T15:30:42;2.97;;;1.02;;
66353;SDS011;53150;48.296;16.452;2022-09-01T15:33:10;2.83;;;1.00;;
66353;SDS011;53150;48.296;16.452;2022-09-01T15:35:36;3.20;;;1.08;;
66353;SDS011;53150;48.296;16.452;2022-09-01T15:38:03;3.95;;;0.98;;
66353;SDS011;53150;48.296;16.452;2022-09-01T15:40:30;2.97;;;1.00;;
66353;SDS011;53150;48.296;16.452;2022-09-01T15:42:56;3.03;;;1.10;;
66353;SDS011;53150;48.296;16.452;2022-09-01T15:45:24;3.58;;;1.05;;
66353;SDS011;53150;48.296;16.452;2022-09-01T15:47:50;3.65;;;1.10;;
66353;SDS011;53150;48.296;16.452;2022-09-01T15:50:17;2.33;;;1.08;;
66353;SDS011;53150;48.296;16.452;2022-09-01T15:55:20;2.50;;;0.80;;